Flight Track Log - Related Links

Times and Time Zones

All times are in EDT time to prevent confusion due to time zone crossing. See the SWA2322 flight status page for this flight to view local times or setup timezone preferences in your user account.

Time Position Orientation Groundspeed Altitude Reporting Facility
EDT Latitude Longitude Course Direction KTS MPH feet Rate Location/Type
Sun 07:58:20 AM 32.9233 -80.0294 13° North 151 174 1,600  Level Jacksonville Center
Sun 07:59:20 AM 32.9750 -80.0153 13° North 173 199 3,900 2,350 Climbing Jacksonville Center
Sun 08:00:20 AM 33.0456 -79.9956 13° North 211 243 6,300 3,300 Climbing Jacksonville Center
Sun 08:01:20 AM 33.1222 -79.9633 19° North 256 295 10,500 3,500 Climbing Jacksonville Center
Sun 08:02:20 AM 33.2000 -79.9039 33° Northeast 295 339 13,300 3,000 Climbing Jacksonville Center
Sun 08:03:20 AM 33.2839 -79.8389 33° Northeast 330 380 16,500 2,800 Climbing Jacksonville Center
Sun 08:04:20 AM 33.3742 -79.7686 33° Northeast 363 418 18,900 2,600 Climbing Jacksonville Center
Sun 08:05:20 AM 33.4703 -79.6956 32° Northeast 386 444 21,700 2,550 Climbing Jacksonville Center
Sun 08:06:20 AM 33.5728 -79.6194 32° Northeast 407 468 24,000 2,200 Climbing Jacksonville Center
Sun 08:07:20 AM 33.6750 -79.5383 33° Northeast 429 494 26,100 2,100 Climbing Jacksonville Center
Sun 08:08:20 AM 33.7853 -79.4542 32° Northeast 443 510 28,200 1,850 Climbing Jacksonville Center
Sun 08:09:20 AM 33.8794 -79.3806 33° Northeast 448 516 29,800 1,550 Climbing Jacksonville Center
Sun 08:10:20 AM 33.9936 -79.2933 32° Northeast 466 536 31,300 1,723 Climbing Jacksonville Center
Sun 08:12:28 AM 34.2436 -79.0964 33° Northeast 500 575 35,200 1,628 Climbing Washington Center
Sun 08:13:28 AM 34.3717 -79.0011 32° Northeast 499 574 36,400 1,100 Climbing Washington Center
Sun 08:14:28 AM 34.4911 -78.9056 33° Northeast 498 573 37,400 1,250 Climbing Washington Center
Sun 08:15:28 AM 34.6106 -78.8069 34° Northeast 504 580 38,900 800 Climbing Washington Center
Sun 08:16:28 AM 34.7297 -78.7156 32° Northeast 504 580 39,000 50 Climbing Washington Center
Sun 08:17:28 AM 34.8428 -78.6261 33° Northeast 503 579 39,000  Level Washington Center
Sun 08:18:29 AM 34.9694 -78.5650 22° Northeast 484 557 39,000  Level Washington Center
Sun 08:19:28 AM 35.0939 -78.5061 21° North 484 557 39,000  Level Washington Center
Sun 08:20:28 AM 35.2208 -78.4447 22° Northeast 484 557 39,000  Level Washington Center
Sun 08:21:28 AM 35.3367 -78.3878 22° Northeast 478 550 39,000 -500 Level Washington Center
Sun 08:22:28 AM 35.4633 -78.3258 22° Northeast 478 550 38,000 -950 Descending Washington Center
Sun 08:23:28 AM 35.5942 -78.2664 20° North 483 556 37,100 -950 Descending Washington Center
Sun 08:24:28 AM 35.7208 -78.2042 22° Northeast 483 556 36,100 -950 Descending Washington Center
Sun 08:25:28 AM 35.8514 -78.1444 20° North 490 564 35,200 -950 Descending Washington Center
Sun 08:26:28 AM 35.9758 -78.0842 21° North 490 564 34,200 -950 Descending Washington Center
Sun 08:27:28 AM 36.1003 -78.0214 22° Northeast 485 558 33,300 -950 Descending Washington Center
Sun 08:28:28 AM 36.2286 -77.9608 21° North 480 552 32,300 -1,300 Descending Washington Center
Sun 08:29:28 AM 36.3550 -77.9003 21° North 480 552 30,700 -1,650 Descending Washington Center
Sun 08:30:28 AM 36.4919 -77.8372 20° North 480 552 29,000 -950 Descending Washington Center
Sun 08:31:28 AM 36.6242 -77.7892 16° North 480 552 28,800 -500 Descending Washington Center
Sun 08:32:28 AM 36.7564 -77.7436 15° North 480 552 28,000 -400 Descending Washington Center
Sun 08:33:28 AM 36.8867 -77.6953 17° North 480 552 28,000 -400 Level Washington Center
Sun 08:34:28 AM 37.0167 -77.6469 17° North 480 552 27,200 -500 Descending Washington Center
Sun 08:35:28 AM 37.1447 -77.6008 16° North 480 552 27,000 -100 Descending Washington Center
Sun 08:36:28 AM 37.2750 -77.5519 17° North 480 552 27,000 -150 Level Washington Center
Sun 08:37:28 AM 37.4031 -77.5056 16° North 480 552 26,700 -700 Descending Washington Center
Sun 08:38:28 AM 37.5289 -77.4589 16° North 475 547 25,600 -1,800 Descending Washington Center
Sun 08:39:28 AM 37.6547 -77.4122 16° North 475 547 23,100 -1,300 Descending Washington Center
Sun 08:40:28 AM 37.7742 -77.3678 16° North 464 534 23,000 -50 Descending Washington Center
Sun 08:41:28 AM 37.8958 -77.3206 17° North 458 527 23,000 -397 Level Washington Center
Sun 08:42:29 AM 38.0133 -77.2758 17° North 448 516 22,200 -1,350 Descending Washington Center
Sun 08:43:28 AM 38.1308 -77.2364 15° North 435 501 20,300 -2,017 Descending Washington Center
Sun 08:44:28 AM 38.2397 -77.1964 16° North 422 486 18,200 -2,150 Descending Washington Center
Sun 08:45:28 AM 38.3444 -77.1536 18° North 411 473 16,000 -1,850 Descending Washington Center
Sun 08:46:28 AM 38.4247 -77.0839 34° Northeast 399 459 14,500 -1,900 Descending Washington Center
Sun 08:47:28 AM 38.5008 -76.9925 43° Northeast 379 436 12,200 -1,800 Descending Washington Center
Sun 08:48:28 AM 38.5747 -76.9061 42° Northeast 367 422 10,900 -1,041 Descending Washington Center
Sun 08:49:29 AM 38.6422 -76.8222 44° Northeast 346 398 10,100 -950 Descending Washington Center
Sun 08:50:28 AM 38.7036 -76.7461 44° Northeast 317 365 9,000 -1,059 Descending Washington Center
Sun 08:51:28 AM 38.7419 -76.6564 61° Northeast 299 344 8,000 -1,259 Descending Washington Center
Sun 08:51:49 AM 38.7667 -76.6167 51° Northeast 283 326 7,300 -1,500 Descending Potomac TRACON
Sun 08:52:44 AM 38.8000 -76.5500 57° Northeast 277 319 6,100 -1,148 Descending Potomac TRACON
Sun 08:53:44 AM 38.8667 -76.5167 21° North 244 281 5,100 -950 Descending Potomac TRACON
Sun 08:54:44 AM 38.9333 -76.5000 11° North 230 265 4,200 -737 Descending Potomac TRACON
Sun 08:55:38 AM 38.9833 -76.5167 345° North 203 234 3,700 -600 Descending Potomac TRACON
Sun 08:56:44 AM 39.0333 -76.5333 345° North 183 211 3,000 -550 Descending Potomac TRACON
Sun 08:57:38 AM 39.0667 -76.5667 322° Northwest 158 182 2,600 -632 Descending Potomac TRACON
Sun 08:58:38 AM 39.1000 -76.6000 322° Northwest 159 183 1,800 -789 Descending Potomac TRACON
Sun 08:59:32 AM 39.1333 -76.6333 322° Northwest 133 153 1,100 -778 Descending Potomac TRACON
Sun 09:01:00 AM 39.1667 -76.6667 339° North  Level FlightAware Approximate
Sun 09:08:00 AM 39.1754 -76.6683 339° North  Level Estimated
Sun 09:09:00 AM 39.1754 -76.6683 339° North  Level Estimated
Sun 09:10:00 AM 39.1754 -76.6683 339° North  Level Estimated
Sun 09:11:00 AM 39.1754 -76.6683 339° North  Level Estimated
Sun 09:12:00 AM 39.1754 -76.6683 339° North  Level Estimated

Login

Don't have an account? Register now (free) for customized features, flight alerts, and more!